Time;durP1;ratioP1;P1;durP2;ratioP2;P2;SDS_P1;SDS_P2;PMS_P1;PMS_P2;Temp;Humidity;BMP_temperature;BMP_pressure;BME280_temperature;BME280_humidity;BME280_pressure;Samples;Min_cycle;Max_cycle;Signal;HPM_P1;HPM_P2
2022/03/06 00:00:11;;;;;;;27.27;9.60;;;;;;;-145.69;89.36;73428.59;5115117;27;20289;-75
2022/03/06 00:02:37;;;;;;;29.80;9.97;;;;;;;-145.69;88.88;73408.69;5114820;28;20653;-75
2022/03/06 00:05:05;;;;;;;25.00;9.10;;;;;;;-145.69;86.93;73412.66;5114996;28;20205;-75
2022/03/06 00:07:32;;;;;;;23.57;8.97;;;;;;;-145.69;88.21;73428.59;5107084;28;20281;-76
2022/03/06 00:10:00;;;;;;;25.77;9.50;;;;;;;-145.69;88.80;73444.50;5094643;28;20328;-75
2022/03/06 00:12:26;;;;;;;24.43;9.27;;;;;;;-145.69;90.72;73444.50;5094253;28;20714;-76
2022/03/06 00:14:53;;;;;;;28.03;9.47;;;;;;;-145.69;90.72;73446.50;5094306;28;20252;-75
2022/03/06 00:17:19;;;;;;;26.93;9.13;;;;;;;-145.69;89.31;73422.63;5094450;28;20202;-75
2022/03/06 00:19:46;;;;;;;23.33;9.47;;;;;;;-145.69;89.22;73408.69;5100985;28;20217;-75
2022/03/06 00:22:12;;;;;;;25.37;10.00;;;;;;;-145.69;87.08;73380.81;5097245;28;20211;-76
2022/03/06 00:24:38;;;;;;;27.40;8.73;;;;;;;-145.69;87.44;73396.72;5073986;28;20620;-76
2022/03/06 00:27:06;;;;;;;25.33;9.17;;;;;;;-145.69;89.21;73406.69;5072792;28;20616;-76
2022/03/06 00:29:33;;;;;;;25.53;9.20;;;;;;;-145.69;89.66;73430.56;5073685;28;20210;-76
2022/03/06 00:31:59;;;;;;;26.80;9.60;;;;;;;-145.69;90.74;73438.53;5094965;28;20267;-76
2022/03/06 00:34:26;;;;;;;30.70;10.37;;;;;;;-145.69;91.38;73426.59;5113966;28;20249;-76
2022/03/06 00:36:52;;;;;;;24.23;9.30;;;;;;;-145.69;90.61;73440.53;5114236;28;20254;-75
2022/03/06 00:39:19;;;;;;;24.33;9.07;;;;;;;-145.69;91.37;73444.50;5114421;28;20197;-75
2022/03/06 00:41:45;;;;;;;24.43;9.33;;;;;;;-145.69;91.24;73476.38;5114053;28;20646;-75
2022/03/06 00:44:13;;;;;;;33.47;9.93;;;;;;;-145.69;93.33;73486.31;5104166;28;20206;-75
2022/03/06 00:46:40;;;;;;;27.87;9.87;;;;;;;-145.69;93.33;73474.38;5093783;28;20565;-75
2022/03/06 00:49:06;;;;;;;28.90;9.07;;;;;;;-145.69;93.26;73472.38;5093489;28;20201;-75
2022/03/06 00:51:33;;;;;;;24.23;9.53;;;;;;;-145.69;93.72;73464.44;5093760;28;20209;-75
2022/03/06 00:53:59;;;;;;;27.43;10.00;;;;;;;-145.69;93.69;73468.41;5093606;28;20218;-75
2022/03/06 00:56:25;;;;;;;24.47;8.73;;;;;;;-145.69;93.82;73480.34;5106967;28;20204;-75
2022/03/06 00:58:52;;;;;;;25.27;8.87;;;;;;;-145.69;94.64;73492.28;5113700;28;20644;-75
2022/03/06 01:01:20;;;;;;;24.43;9.13;;;;;;;-145.69;94.91;73492.28;5113814;28;20197;-75
2022/03/06 01:03:46;;;;;;;22.90;8.80;;;;;;;-145.69;95.44;73498.28;5113634;28;20208;-75
2022/03/06 01:06:13;;;;;;;22.70;8.93;;;;;;;-145.69;96.53;73518.19;5113988;28;20201;-75
2022/03/06 01:08:39;;;;;;;21.83;8.53;;;;;;;-145.69;96.19;73516.19;5099030;28;20194;-75
2022/03/06 01:11:06;;;;;;;30.37;9.60;;;;;;;-145.69;98.24;73524.16;5093362;28;20203;-75
2022/03/06 01:13:33;;;;;;;31.07;10.33;;;;;;;-145.69;97.83;73536.09;5093134;28;20198;-76
2022/03/06 01:15:59;;;;;;;23.07;8.70;;;;;;;-145.69;98.72;73548.03;5093347;28;20226;-76
2022/03/06 01:18:27;;;;;;;24.30;9.57;;;;;;;-145.69;98.60;73540.06;5093246;28;20198;-76
2022/03/06 01:20:54;;;;;;;25.23;9.27;;;;;;;-145.69;98.98;73558.00;5109955;28;20240;-76
2022/03/06 01:23:20;;;;;;;28.73;10.13;;;;;;;-145.69;99.03;73567.94;5113793;28;20193;-76
2022/03/06 01:25:46;;;;;;;36.73;9.57;;;;;;;-145.69;99.71;73554.00;5113374;28;20671;-75
2022/03/06 01:28:13;;;;;;;28.73;10.70;;;;;;;-145.69;98.30;73532.13;5113544;28;20216;-76
2022/03/06 01:30:39;;;;;;;25.87;9.97;;;;;;;-145.69;98.86;73544.06;5098677;28;20721;-76
2022/03/06 01:33:06;;;;;;;28.97;10.03;;;;;;;-145.69;99.62;73563.97;5092817;28;20198;-76
2022/03/06 01:35:34;;;;;;;28.37;10.20;;;;;;;-145.69;99.77;73552.03;5093272;28;20236;-76
2022/03/06 01:38:00;;;;;;;29.17;9.63;;;;;;;-145.69;100.00;73552.03;5092321;28;20202;-76
2022/03/06 01:40:27;;;;;;;27.10;9.53;;;;;;;-145.69;100.00;73573.94;5093125;28;20217;-75
2022/03/06 01:42:53;;;;;;;30.03;10.53;;;;;;;-145.69;99.95;73554.00;5107218;28;20193;-75
2022/03/06 01:45:23;;;;;;;27.33;9.60;;;;;;;-145.69;99.47;73556.00;5113231;28;20201;-76
2022/03/06 01:47:51;;;;;;;31.80;9.73;;;;;;;-145.69;100.00;73575.91;5107845;27;20202;-76
2022/03/06 01:50:19;;;;;;;24.90;8.63;;;;;;;-145.69;100.00;73591.84;5093123;28;20206;-76
2022/03/06 01:52:48;;;;;;;27.30;9.43;;;;;;;-145.69;100.00;73565.97;5092812;28;20531;-76
2022/03/06 01:55:17;;;;;;;27.40;9.20;;;;;;;-145.69;100.00;73558.00;5107365;28;20229;-76
2022/03/06 01:57:47;;;;;;;27.17;9.80;;;;;;;-145.69;100.00;73552.03;5113164;28;20197;-76
2022/03/06 02:00:19;;;;;;;30.87;10.00;;;;;;;-145.69;100.00;73563.97;5112849;28;20200;-76
2022/03/06 02:02:45;;;;;;;30.10;9.57;;;;;;;-145.69;100.00;73558.00;5113344;28;20269;-76
2022/03/06 02:05:12;;;;;;;30.73;9.77;;;;;;;-145.69;100.00;73540.06;5113053;28;20284;-76
2022/03/06 02:07:41;;;;;;;32.88;12.73;;;;;;;-145.69;100.00;73558.00;5096547;28;20792;-77
2022/03/06 02:10:10;;;;;;;31.20;11.13;;;;;;;-145.69;100.00;73563.97;5092761;28;20202;-76
2022/03/06 02:12:37;;;;;;;30.00;10.50;;;;;;;-145.69;100.00;73567.94;5092539;28;20205;-76
2022/03/06 02:15:08;;;;;;;24.57;9.43;;;;;;;-145.69;100.00;73561.97;5084946;28;20225;-76
2022/03/06 02:17:37;;;;;;;25.30;10.37;;;;;;;-145.69;100.00;73571.94;5073772;28;20670;-76
2022/03/06 02:20:07;;;;;;;29.67;10.50;;;;;;;-145.69;100.00;73577.91;5112823;28;20233;-77
2022/03/06 02:22:37;;;;;;;32.00;10.90;;;;;;;-145.69;100.00;73560.00;5112879;28;20240;-77
2022/03/06 02:25:06;;;;;;;29.03;9.97;;;;;;;-145.69;100.00;73550.03;5112814;28;20198;-77
2022/03/06 02:27:33;;;;;;;28.70;9.67;;;;;;;-145.69;100.00;73552.03;5112753;28;20580;-76
2022/03/06 02:29:59;;;;;;;30.80;10.33;;;;;;;-145.69;100.00;73522.16;5110936;28;20598;-77
2022/03/06 02:32:26;;;;;;;28.80;11.00;;;;;;;-145.69;100.00;73478.34;5112877;28;20567;-77
2022/03/06 02:34:55;;;;;;;29.30;10.07;;;;;;;-145.69;99.37;73480.34;5112747;28;20233;-77
2022/03/06 02:37:22;;;;;;;33.57;11.53;;;;;;;-145.69;100.00;73480.34;5112681;28;20609;-76
2022/03/06 02:39:51;;;;;;;29.13;11.13;;;;;;;-145.69;100.00;73432.56;5112644;28;20221;-76
2022/03/06 02:42:25;;;;;;;32.43;11.33;;;;;;;-145.69;98.66;73424.59;5094639;28;20263;-76
2022/03/06 02:44:52;;;;;;;32.50;10.60;;;;;;;-145.69;98.70;73440.53;5092286;28;20201;-77
2022/03/06 02:47:19;;;;;;;31.33;11.47;;;;;;;-145.69;99.82;73436.56;5092945;28;20202;-77
2022/03/06 02:49:45;;;;;;;34.87;12.10;;;;;;;-145.69;100.00;73444.50;5093039;28;20194;-77
2022/03/06 02:52:12;;;;;;;33.43;11.30;;;;;;;-145.69;100.00;73460.44;5095951;28;20213;-77
2022/03/06 02:54:38;;;;;;;31.17;11.40;;;;;;;-145.69;100.00;73480.34;5096421;28;20226;-76
2022/03/06 02:57:07;;;;;;;32.97;11.33;;;;;;;-145.69;100.00;73480.34;5097036;28;20664;-77
2022/03/06 02:59:34;;;;;;;28.57;10.97;;;;;;;-145.69;100.00;73516.19;5095891;28;20278;-77
2022/03/06 03:02:01;;;;;;;36.73;11.33;;;;;;;-145.69;100.00;73512.22;5095733;28;20202;-77
2022/03/06 03:04:28;;;;;;;32.37;12.00;;;;;;;-145.69;100.00;73506.22;5096107;28;20209;-77
2022/03/06 03:06:54;;;;;;;31.63;11.13;;;;;;;-145.69;100.00;73502.25;5096230;28;20205;-77
2022/03/06 03:09:21;;;;;;;33.27;11.47;;;;;;;-145.69;100.00;73516.19;5095734;28;20209;-77
2022/03/06 03:11:48;;;;;;;34.30;12.37;;;;;;;-145.69;100.00;73522.16;5095661;28;20198;-76
2022/03/06 03:14:16;;;;;;;31.63;9.97;;;;;;;-145.69;100.00;73514.19;5095269;28;20205;-77
2022/03/06 03:16:43;;;;;;;33.70;11.83;;;;;;;-145.69;100.00;73480.34;5114642;28;20714;-77
2022/03/06 03:19:10;;;;;;;34.83;11.83;;;;;;;-145.69;100.00;73480.34;5115638;28;20236;-77
2022/03/06 03:21:36;;;;;;;34.77;11.50;;;;;;;-145.69;100.00;73468.41;5115588;28;20198;-76
2022/03/06 03:24:03;;;;;;;44.05;17.00;;;;;;;-145.69;100.00;73478.34;5115159;28;20518;-77
2022/03/06 03:26:30;;;;;;;33.73;12.63;;;;;;;-145.69;100.00;73492.28;5112443;28;20201;-77
2022/03/06 03:28:56;;;;;;;37.30;12.60;;;;;;;-145.69;100.00;73486.31;5095154;28;20198;-77
2022/03/06 03:31:24;;;;;;;42.05;15.70;;;;;;;-145.69;100.00;73466.41;5094326;28;20506;-76
2022/03/06 03:33:51;;;;;;;34.53;12.83;;;;;;;-145.69;100.00;73494.28;5094955;28;20195;-76
2022/03/06 03:36:19;;;;;;;33.40;11.80;;;;;;;-145.69;100.00;73508.22;5095130;28;20581;-77
2022/03/06 03:38:46;;;;;;;39.33;13.40;;;;;;;-145.69;100.00;73494.28;5097838;28;20193;-76
2022/03/06 03:41:13;;;;;;;39.87;13.17;;;;;;;-145.69;100.00;73502.25;5115403;28;20205;-76
2022/03/06 03:43:39;;;;;;;34.63;11.47;;;;;;;-145.69;100.00;73512.22;5115114;28;20197;-76
2022/03/06 03:46:06;;;;;;;34.57;11.67;;;;;;;-145.69;100.00;73522.16;5115277;28;20205;-76
2022/03/06 03:48:34;;;;;;;37.37;12.37;;;;;;;-145.69;100.00;73492.28;5114905;28;20237;-77
2022/03/06 03:51:01;;;;;;;41.50;12.23;;;;;;;-145.69;100.00;73496.28;5074182;28;20191;-77
2022/03/06 03:53:27;;;;;;;35.90;12.90;;;;;;;-145.69;100.00;73480.34;5074648;28;20199;-76
2022/03/06 03:55:54;;;;;;;36.33;13.23;;;;;;;-145.69;100.00;73470.41;5074272;28;20230;-77
2022/03/06 03:58:20;;;;;;;36.33;13.10;;;;;;;-145.69;100.00;73488.31;5074411;28;20206;-77
2022/03/06 04:00:48;;;;;;;40.17;13.30;;;;;;;-145.69;100.00;73482.34;5075359;28;20666;-77
2022/03/06 04:03:15;;;;;;;42.43;14.30;;;;;;;-145.69;100.00;73466.41;5114614;28;20201;-76
2022/03/06 04:05:43;;;;;;;42.20;13.40;;;;;;;-145.69;100.00;73470.41;5114956;28;20205;-77
2022/03/06 04:08:09;;;;;;;42.73;13.07;;;;;;;-145.69;100.00;73462.44;5114707;27;20205;-76
2022/03/06 04:10:36;;;;;;;39.20;13.17;;;;;;;-145.69;100.00;73470.41;5114662;28;20663;-76
2022/03/06 04:13:02;;;;;;;32.20;12.67;;;;;;;-145.69;100.00;73480.34;5114043;27;20560;-77
2022/03/06 04:15:29;;;;;;;45.43;14.30;;;;;;;-145.69;100.00;73446.50;5073890;28;20218;-76
2022/03/06 04:17:55;;;;;;;40.13;12.47;;;;;;;-145.69;100.00;73454.47;5073754;28;20205;-77
2022/03/06 04:20:22;;;;;;;46.17;14.83;;;;;;;-145.69;100.00;73476.38;5073735;28;20777;-76
2022/03/06 04:22:50;;;;;;;39.07;12.97;;;;;;;-145.69;100.00;73506.22;5076393;28;20199;-76
2022/03/06 04:25:17;;;;;;;42.10;13.80;;;;;;;-145.69;100.00;73506.22;5079667;28;20190;-76
2022/03/06 04:27:44;;;;;;;41.43;13.53;;;;;;;-145.69;100.00;73542.06;5114393;28;20202;-77
2022/03/06 04:30:11;;;;;;;35.70;12.30;;;;;;;-145.69;100.00;73563.97;5114239;28;20668;-77
2022/03/06 04:32:38;;;;;;;41.37;13.83;;;;;;;-145.69;100.00;73575.91;5114416;28;20246;-76
2022/03/06 04:35:05;;;;;;;37.17;13.20;;;;;;;-145.69;100.00;73599.81;5114267;28;20760;-77
2022/03/06 04:37:32;;;;;;;42.73;14.53;;;;;;;-145.69;100.00;73597.81;5112046;28;20205;-77
2022/03/06 04:40:00;;;;;;;41.40;13.40;;;;;;;-145.69;100.00;73607.78;5093592;28;20716;-76
2022/03/06 04:42:27;;;;;;;38.13;13.10;;;;;;;-145.69;100.00;73597.81;5093725;28;20657;-76
2022/03/06 04:44:53;;;;;;;46.47;13.97;;;;;;;-145.69;100.00;73599.81;5093443;28;20194;-77
2022/03/06 04:47:20;;;;;;;38.80;12.77;;;;;;;-145.69;100.00;73611.75;5093703;28;20202;-76
2022/03/06 04:49:46;;;;;;;39.30;14.00;;;;;;;-145.69;100.00;73615.72;5096217;28;20202;-76
2022/03/06 04:52:13;;;;;;;37.73;12.57;;;;;;;-145.69;100.00;73629.66;5113988;28;20208;-77
2022/03/06 04:54:40;;;;;;;44.73;13.67;;;;;;;-145.69;100.00;73647.59;5113829;28;20208;-77
2022/03/06 04:57:07;;;;;;;36.47;13.00;;;;;;;-145.69;100.00;73653.56;5111937;28;20229;-76
2022/03/06 04:59:34;;;;;;;46.47;13.53;;;;;;;-145.69;100.00;73659.53;5114040;28;20250;-76
2022/03/06 05:02:01;;;;;;;42.07;13.93;;;;;;;-145.69;100.00;73639.63;5114002;28;20288;-76
2022/03/06 05:04:27;;;;;;;45.97;14.47;;;;;;;-145.69;100.00;73627.69;5113908;28;20285;-77
2022/03/06 05:06:54;;;;;;;37.83;12.63;;;;;;;-145.69;100.00;73621.72;5113777;28;20209;-77
2022/03/06 05:09:20;;;;;;;47.80;14.57;;;;;;;-145.69;100.00;73601.81;5094738;28;20228;-76
2022/03/06 05:11:47;;;;;;;45.67;14.93;;;;;;;-145.69;100.00;73579.91;5092841;28;20202;-76
2022/03/06 05:14:15;;;;;;;43.53;13.97;;;;;;;-145.69;100.00;73561.97;5092969;28;20605;-76
2022/03/06 05:16:41;;;;;;;47.23;14.90;;;;;;;-145.69;100.00;73524.16;5093285;28;20229;-77
2022/03/06 05:19:08;;;;;;;50.43;15.63;;;;;;;-145.69;100.00;73484.34;5093221;28;20198;-77
2022/03/06 05:21:34;;;;;;;41.00;14.60;;;;;;;-145.69;100.00;73446.50;5111026;28;20202;-77
2022/03/06 05:24:01;;;;;;;51.13;20.47;;;;;;;-145.69;100.00;73436.56;5112240;28;20524;-77
2022/03/06 05:26:27;;;;;;;42.00;15.53;;;;;;;-145.69;100.00;73424.59;5113542;28;20221;-77
2022/03/06 05:28:54;;;;;;;47.13;15.20;;;;;;;-145.69;100.00;73414.66;5113434;28;20209;-77
2022/03/06 05:31:22;;;;;;;41.57;14.63;;;;;;;-145.69;100.00;73404.69;5113435;28;20209;-77
2022/03/06 05:33:48;;;;;;;42.07;14.87;;;;;;;-145.69;100.00;73384.78;5094298;28;20198;-77
2022/03/06 05:36:15;;;;;;;47.67;16.03;;;;;;;-145.69;100.00;73376.81;5092674;28;20221;-77
2022/03/06 05:38:41;;;;;;;41.67;14.33;;;;;;;-145.69;100.00;73364.88;5092970;28;20205;-78
2022/03/06 05:41:08;;;;;;;37.80;15.67;;;;;;;-145.69;100.00;73364.88;5092929;28;20194;-77
2022/03/06 05:43:34;;;;;;;42.60;15.73;;;;;;;-145.69;100.00;73354.94;5108722;28;20610;-77
2022/03/06 05:46:02;;;;;;;50.50;16.37;;;;;;;-145.69;100.00;73352.94;5113388;28;20204;-76
2022/03/06 05:48:30;;;;;;;43.27;15.43;;;;;;;-145.69;100.00;73344.97;5113631;28;20201;-77
2022/03/06 05:50:56;;;;;;;48.70;16.70;;;;;;;-145.69;100.00;73339.00;5112972;28;20648;-77
2022/03/06 05:53:23;;;;;;;48.23;17.07;;;;;;;-145.69;100.00;73333.03;5112968;28;20230;-77
2022/03/06 05:55:49;;;;;;;38.83;15.13;;;;;;;-145.69;100.00;73327.06;5093637;28;20675;-77
2022/03/06 05:58:16;;;;;;;40.37;15.33;;;;;;;-145.69;100.00;73323.06;5092993;28;20198;-77
2022/03/06 06:00:42;;;;;;;41.57;14.60;;;;;;;-145.69;100.00;73317.09;5092758;28;20227;-77
2022/03/06 06:03:09;;;;;;;41.53;14.63;;;;;;;-145.69;100.00;73317.09;5092843;28;20198;-77
2022/03/06 06:05:38;;;;;;;45.77;16.07;;;;;;;-145.69;100.00;73305.16;5092901;28;20209;-77
2022/03/06 06:08:05;;;;;;;44.60;15.10;;;;;;;-145.69;99.61;73305.16;5072084;28;20614;-76
2022/03/06 06:10:31;;;;;;;41.70;14.43;;;;;;;-145.69;100.00;73297.19;5072681;28;20202;-77
2022/03/06 06:12:58;;;;;;;43.13;15.17;;;;;;;-145.69;99.12;73293.22;5072586;28;20198;-77
2022/03/06 06:15:24;;;;;;;41.10;15.10;;;;;;;-145.69;99.08;73293.22;5072209;28;20668;-76
2022/03/06 06:17:51;;;;;;;41.00;14.67;;;;;;;-145.69;99.51;73285.25;5073161;28;20206;-76
2022/03/06 06:20:17;;;;;;;37.73;15.47;;;;;;;-145.69;98.11;73277.28;5112836;28;20655;-77
2022/03/06 06:22:45;;;;;;;37.40;14.07;;;;;;;-145.69;98.31;73277.28;5112839;28;20247;-76
2022/03/06 06:25:14;;;;;;;38.83;14.57;;;;;;;-145.69;97.68;73279.28;5115121;28;20204;-77
2022/03/06 06:27:40;;;;;;;39.03;14.90;;;;;;;-145.69;97.85;73287.25;5093534;28;20653;-77
2022/03/06 06:30:08;;;;;;;43.87;15.80;;;;;;;-145.69;97.55;73285.25;5099996;28;20451;-77
2022/03/06 06:32:35;;;;;;;42.33;14.40;;;;;;;-145.69;96.33;73289.22;5116575;28;20529;-76
2022/03/06 06:35:01;;;;;;;38.10;14.50;;;;;;;-145.69;97.00;73287.25;5116697;28;20204;-76
2022/03/06 06:37:28;;;;;;;39.73;14.50;;;;;;;-145.69;96.57;73287.25;5116693;28;20253;-77
2022/03/06 06:39:56;;;;;;;36.73;14.13;;;;;;;-145.69;97.33;73283.25;5116794;28;20205;-76
2022/03/06 06:42:22;;;;;;;38.20;13.97;;;;;;;-145.69;96.86;73273.31;5112200;28;20199;-76
2022/03/06 06:44:49;;;;;;;40.77;14.63;;;;;;;-145.69;96.19;73269.31;5095995;28;20198;-76
2022/03/06 06:47:15;;;;;;;35.03;13.57;;;;;;;-145.69;95.14;73257.38;5095967;28;20688;-77
2022/03/06 06:49:44;;;;;;;32.77;13.63;;;;;;;-145.69;94.06;73251.41;5095886;28;20194;-77
2022/03/06 06:52:11;;;;;;;37.70;14.07;;;;;;;-145.69;93.66;73239.47;5095848;28;20202;-76
2022/03/06 06:54:37;;;;;;;40.53;14.00;;;;;;;-145.69;92.74;73229.50;5100113;28;20621;-77
2022/03/06 06:57:05;;;;;;;33.97;13.03;;;;;;;-145.69;92.38;73219.56;5115864;28;20229;-76
2022/03/06 06:59:34;;;;;;;39.97;14.00;;;;;;;-145.69;92.38;73221.53;5116083;28;20224;-76
2022/03/06 07:02:01;;;;;;;42.87;13.70;;;;;;;-145.69;90.47;73209.59;5116047;28;20202;-76
2022/03/06 07:04:27;;;;;;;36.23;13.90;;;;;;;-145.69;92.08;73205.63;5116076;28;20560;-76
2022/03/06 07:06:56;;;;;;;36.20;13.93;;;;;;;-145.69;90.67;73193.66;5109342;28;20688;-76
2022/03/06 07:09:22;;;;;;;35.83;12.30;;;;;;;-145.69;90.26;73205.63;5095524;28;20672;-77
2022/03/06 07:11:49;;;;;;;30.83;12.37;;;;;;;-145.69;91.64;73205.63;5095577;28;20289;-76
2022/03/06 07:14:16;;;;;;;34.10;12.70;;;;;;;-145.69;89.97;73195.66;5095530;28;20198;-76
2022/03/06 07:16:45;;;;;;;34.23;13.23;;;;;;;-145.69;87.97;73181.72;5095309;28;20225;-76
2022/03/06 07:19:12;;;;;;;32.37;12.80;;;;;;;-145.69;88.74;73187.69;5103373;28;20221;-76
2022/03/06 07:21:38;;;;;;;36.13;13.77;;;;;;;-145.69;88.58;73189.69;5116083;28;20197;-77
2022/03/06 07:24:06;;;;;;;29.17;11.77;;;;;;;-145.69;88.43;73183.72;5115564;28;20235;-76
2022/03/06 07:26:32;;;;;;;37.00;13.63;;;;;;;-145.69;88.43;73189.69;5115640;28;20205;-76
2022/03/06 07:28:59;;;;;;;32.57;13.17;;;;;;;-145.69;88.19;73179.75;5115874;28;20602;-77
2022/03/06 07:31:27;;;;;;;33.97;12.33;;;;;;;-145.69;86.66;73167.78;5105431;28;20568;-76
2022/03/06 07:33:53;;;;;;;30.77;12.97;;;;;;;-145.69;88.07;73173.75;5095276;28;20205;-76
2022/03/06 07:36:20;;;;;;;31.07;12.93;;;;;;;-145.69;89.53;73165.81;5094591;28;20229;-76
2022/03/06 07:38:46;;;;;;;31.87;12.87;;;;;;;-145.69;86.95;73161.81;5095003;28;20219;-76
2022/03/06 07:41:13;;;;;;;33.27;13.00;;;;;;;-145.69;87.00;73145.91;5094908;28;20198;-76
2022/03/06 07:43:40;;;;;;;30.60;12.50;;;;;;;-145.69;86.26;73141.91;5107933;28;20246;-77
2022/03/06 07:46:06;;;;;;;29.53;12.77;;;;;;;-145.69;85.43;73139.91;5115181;28;20221;-76
2022/03/06 07:48:34;;;;;;;34.77;13.40;;;;;;;-145.69;84.66;73102.09;5115126;28;20556;-76
2022/03/06 07:51:01;;;;;;;29.57;12.60;;;;;;;-145.69;83.23;73094.13;5115383;28;20194;-76
2022/03/06 07:53:27;;;;;;;40.37;14.23;;;;;;;-145.69;84.93;73102.09;5105431;28;20194;-76
2022/03/06 07:55:54;;;;;;;30.37;12.43;;;;;;;-145.69;82.66;73078.22;5094540;28;20661;-76
2022/03/06 07:58:21;;;;;;;32.07;11.77;;;;;;;-145.69;82.04;73072.25;5094595;28;20198;-77
2022/03/06 08:00:48;;;;;;;29.17;12.23;;;;;;;-145.69;83.60;73092.16;5094552;28;20222;-76
2022/03/06 08:03:15;;;;;;;33.10;12.77;;;;;;;-145.69;83.43;73120.00;5094553;28;20556;-75
2022/03/06 08:05:43;;;;;;;36.57;14.17;;;;;;;-145.69;83.75;73126.00;5104117;28;20198;-76
2022/03/06 08:08:10;;;;;;;36.40;13.47;;;;;;;-145.69;83.74;73096.13;5114595;28;20254;-76
2022/03/06 08:10:36;;;;;;;35.23;12.73;;;;;;;-145.69;82.33;73054.31;5114822;28;20204;-76
2022/03/06 08:13:03;;;;;;;39.33;14.50;;;;;;;-145.69;82.18;73086.19;5114527;28;20242;-76
2022/03/06 08:15:29;;;;;;;33.67;14.00;;;;;;;-145.69;80.52;73082.19;5114902;28;20197;-76
2022/03/06 08:17:56;;;;;;;34.43;12.80;;;;;;;-145.69;82.63;73088.16;5103864;28;20611;-76
2022/03/06 08:20:22;;;;;;;30.80;12.23;;;;;;;-145.69;81.01;73042.38;5094248;28;20312;-76
2022/03/06 08:22:50;;;;;;;37.00;12.80;;;;;;;-145.69;79.98;73074.22;5094203;28;20202;-76
2022/03/06 08:25:19;;;;;;;30.37;12.73;;;;;;;-145.69;80.83;73044.38;5094011;28;20569;-76
2022/03/06 08:27:45;;;;;;;29.77;11.70;;;;;;;-145.69;78.72;73022.47;5102171;28;20299;-76
2022/03/06 08:30:12;;;;;;;32.20;13.00;;;;;;;-145.69;78.90;73008.53;5095926;28;20205;-76
2022/03/06 08:32:39;;;;;;;33.40;13.30;;;;;;;-145.69;78.70;73026.44;5073959;28;20199;-76
2022/03/06 08:35:07;;;;;;;32.43;12.17;;;;;;;-145.69;79.24;73060.28;5073733;28;20649;-76
2022/03/06 08:37:34;;;;;;;33.83;13.33;;;;;;;-145.69;80.29;73054.31;5073624;28;20230;-76
2022/03/06 08:40:02;;;;;;;28.77;11.87;;;;;;;-145.69;79.14;73058.31;5091026;28;20652;-76
2022/03/06 08:42:28;;;;;;;29.37;12.67;;;;;;;-145.69;80.11;73042.38;5114245;28;20229;-76
2022/03/06 08:44:55;;;;;;;31.17;12.93;;;;;;;-145.69;78.83;73006.53;5113848;28;20711;-76
2022/03/06 08:47:21;;;;;;;29.47;11.80;;;;;;;-145.69;76.28;72982.66;5113109;28;20212;-76
2022/03/06 08:49:48;;;;;;;31.50;12.10;;;;;;;-145.69;75.42;72980.66;5114205;28;20201;-76
2022/03/06 08:52:14;;;;;;;28.03;11.03;;;;;;;-145.69;74.57;72980.66;5105493;28;20630;-76
2022/03/06 08:54:41;;;;;;;27.70;11.53;;;;;;;-145.69;75.89;72978.69;5093615;28;20259;-77
2022/03/06 08:57:09;;;;;;;31.30;11.67;;;;;;;-145.69;75.07;72998.59;5094077;28;20275;-77
2022/03/06 08:59:35;;;;;;;31.73;11.57;;;;;;;-145.69;76.78;73006.53;5093829;28;20206;-77
2022/03/06 09:02:02;;;;;;;29.63;11.83;;;;;;;-145.69;76.59;72992.59;5093733;28;20672;-77
2022/03/06 09:04:29;;;;;;;26.33;11.30;;;;;;;-145.69;75.15;73006.53;5103817;28;20266;-77
2022/03/06 09:06:56;;;;;;;26.90;11.53;;;;;;;-145.69;75.99;73008.53;5114073;28;20205;-77
2022/03/06 09:09:22;;;;;;;24.00;10.97;;;;;;;-145.69;76.35;72998.59;5113976;28;20622;-77
2022/03/06 09:11:48;;;;;;;32.93;14.93;;;;;;;-145.69;76.73;73022.47;5113011;28;20490;-77
2022/03/06 09:14:16;;;;;;;27.47;11.73;;;;;;;-145.69;75.94;72998.59;5114211;28;20624;-77
2022/03/06 09:16:45;;;;;;;25.97;10.87;;;;;;;-145.69;76.34;72964.75;5101228;28;20214;-77
2022/03/06 09:19:12;;;;;;;26.83;10.80;;;;;;;-145.69;74.63;72960.75;5093408;28;20269;-77
2022/03/06 09:21:39;;;;;;;28.07;12.30;;;;;;;-145.69;73.78;72940.84;5093584;28;20683;-77
2022/03/06 09:24:06;;;;;;;24.17;9.73;;;;;;;-145.69;72.34;72930.91;5093483;28;20198;-77
2022/03/06 09:26:33;;;;;;;25.87;11.37;;;;;;;-145.69;72.27;72920.94;5093638;28;20194;-77
2022/03/06 09:28:59;;;;;;;24.67;10.20;;;;;;;-145.69;71.94;72887.09;5109719;28;20193;-77
2022/03/06 09:31:27;;;;;;;24.63;11.07;;;;;;;-145.69;71.13;72871.19;5113986;28;20212;-77
2022/03/06 09:33:54;;;;;;;23.37;9.83;;;;;;;-145.69;68.59;72903.03;5113579;28;20194;-76
2022/03/06 09:36:20;;;;;;;22.73;9.87;;;;;;;-145.69;68.90;72920.94;5113667;28;20197;-77
2022/03/06 09:38:47;;;;;;;21.93;10.07;;;;;;;-145.69;69.42;72895.06;5113781;28;20220;-77
2022/03/06 09:41:17;;;;;;;24.57;10.67;;;;;;;-145.69;69.14;72899.06;5095511;28;20550;-79
2022/03/06 09:43:44;;;;;;;26.00;10.93;;;;;;;-145.69;69.71;72883.13;5093292;28;20202;-77
2022/03/06 09:46:12;;;;;;;24.83;9.77;;;;;;;-145.69;68.52;72885.13;5093145;28;20284;-78
2022/03/06 09:48:40;;;;;;;26.57;10.33;;;;;;;-145.69;67.98;72871.19;5092748;28;20680;-80
2022/03/06 09:51:06;;;;;;;26.43;11.07;;;;;;;-145.69;66.48;72859.25;5092990;28;20198;-77
2022/03/06 09:53:33;;;;;;;25.07;9.90;;;;;;;-145.69;65.18;72819.44;5112776;28;20192;-78
2022/03/06 09:56:00;;;;;;;26.50;10.10;;;;;;;-145.69;65.37;72831.38;5113447;28;20201;-77
2022/03/06 09:58:27;;;;;;;25.17;10.03;;;;;;;-145.69;65.85;72825.41;5113866;28;20220;-77
2022/03/06 10:00:54;;;;;;;24.33;10.87;;;;;;;-145.69;66.63;72841.31;5115812;28;20304;-76
2022/03/06 10:03:23;;;;;;;25.23;10.13;;;;;;;-145.69;64.91;72847.28;5117391;28;20201;-78
2022/03/06 10:05:51;;;;;;;22.37;9.37;;;;;;;-145.69;65.37;72857.25;5117937;28;20288;-78
2022/03/06 10:08:23;;;;;;;25.43;10.87;;;;;;;-145.69;65.86;72911.00;5117273;28;20251;-77
2022/03/06 10:10:53;;;;;;;25.83;10.30;;;;;;;-145.69;66.38;72893.09;5108686;28;20671;-77
2022/03/06 10:13:25;;;;;;;25.63;10.60;;;;;;;-145.69;66.48;72891.09;5096712;28;20219;-80
2022/03/06 10:16:05;;;;;;;22.70;9.50;;;;;;;-145.69;64.16;72877.16;5096540;28;20198;-77
2022/03/06 10:18:33;;;;;;;21.87;9.60;;;;;;;-145.69;65.16;72869.19;5097182;28;20688;-81
2022/03/06 10:21:13;;;;;;;26.67;10.83;;;;;;;-145.69;63.32;72863.22;5096640;28;20631;-78
2022/03/06 10:23:41;;;;;;;23.80;9.50;;;;;;;-145.69;64.09;72855.25;5110926;28;20193;-78
2022/03/06 10:26:09;;;;;;;24.37;9.67;;;;;;;-145.69;63.69;72853.28;5117179;28;20559;-77
2022/03/06 10:28:44;;;;;;;23.63;10.27;;;;;;;-145.69;64.33;72831.38;5117006;28;20193;-77
2022/03/06 10:31:12;;;;;;;23.93;9.90;;;;;;;-145.69;62.75;72803.50;5117053;28;20196;-77
2022/03/06 10:33:39;;;;;;;27.53;10.40;;;;;;;-145.69;60.80;72771.66;5116921;28;20208;-78
2022/03/06 10:36:09;;;;;;;22.80;10.07;;;;;;;-145.69;60.29;72763.69;5101461;28;20203;-78
2022/03/06 10:38:37;;;;;;;24.27;9.97;;;;;;;-145.69;60.61;72779.63;5096231;28;20618;-77
2022/03/06 10:41:12;;;;;;;21.03;8.93;;;;;;;-145.69;60.82;72747.78;5084735;28;20233;-77
2022/03/06 10:43:40;;;;;;;22.77;9.77;;;;;;;-145.69;58.75;72739.81;5076202;28;20206;-78
2022/03/06 10:46:08;;;;;;;29.53;10.03;;;;;;;-145.69;58.53;72719.91;5076022;28;20293;-78
2022/03/06 10:48:34;;;;;;;74.73;21.50;;;;;;;-145.69;56.46;72701.97;5112064;28;20197;-78
2022/03/06 10:51:02;;;;;;;26.73;9.63;;;;;;;-145.69;57.22;72662.19;5116632;28;20193;-77
2022/03/06 10:53:33;;;;;;;19.90;9.07;;;;;;;-145.69;54.36;72648.25;5116530;28;20280;-78
2022/03/06 10:56:07;;;;;;;22.90;9.77;;;;;;;-145.69;53.80;72632.31;5116155;27;20208;-78
2022/03/06 10:58:37;;;;;;;18.43;7.93;;;;;;;-145.69;51.51;72612.41;5116153;28;20244;-79